Terminal Aerodrome Forecast
Issued by NWS

Home | Current Version | Previous Version | Text Only | Print | Product List | Glossary On
Versions: 1 2 3 4 5 6 7 8 9 10 11 12 13
000
FTUS45 KPSR 042320
TAFIPL
TAF
KIPL 042320Z 0500/0524 VRB04KT P6SM SKC
     FM050300 26006KT P6SM SKC
     FM051100 VRB04KT P6SM FEW250=

USA.gov is the U.S. government's official web portal to all federal, state and local government web resources and services.